Laurinburg, North Carolina
Current Conditions -  °F | °C
As of 1:10 PM on Saturday 20 Dec 2014 (Local Time) from KMEB Reporting Station
Haze Haze  
Wind Chill: 38°   Ceiling: 3400
Heat Index: 42°   Visibility: 5mi
Dew Point: 39°   Wind: 7mph
Humidity: 89%   Direction: 70°ENE
Pressure: 30.25"   Gusts: NA
Location:  34.77°N, 79.46°W
Report Text: KMEB 201810Z AUTO 07006KT 5SM BR SCT008 OVC034 06/04 A3025 RMK AO2 RAE1756 P0001 T00560039
Loading
Personal Weather Stations






























Interactive Weather Map New forecast layout! Learn more

10-Day Weather Forecast

Advertisements
Track Severe Weather on mobile